Time;durP1;ratioP1;P1;durP2;ratioP2;P2;SDS_P1;SDS_P2;PMS_P1;PMS_P2;Temp;Humidity;BMP_temperature;BMP_pressure;BME280_temperature;BME280_humidity;BME280_pressure;Samples;Min_cycle;Max_cycle;Signal;HPM_P1;HPM_P2
2023/07/08 00:00:20;;;;;;;14.27;8.25;;;22.10;83.90;;;;;;5042793;28;20025;-55
2023/07/08 00:02:46;;;;;;;14.07;8.48;;;22.10;84.20;;;;;;5034924;28;20509;-51
2023/07/08 00:05:14;;;;;;;15.18;8.15;;;22.10;83.80;;;;;;5043125;28;20020;-50
2023/07/08 00:07:41;;;;;;;14.18;7.82;;;22.10;83.90;;;;;;5051072;28;20021;-51
2023/07/08 00:10:21;;;;;;;11.25;8.10;;;22.10;83.90;;;;;;5051791;28;20021;-51
2023/07/08 00:12:52;;;;;;;12.27;8.23;;;22.10;83.60;;;;;;5054140;22;20041;-48
2023/07/08 00:15:20;;;;;;;11.88;8.00;;;22.10;83.50;;;;;;5031323;28;20438;-47
2023/07/08 00:17:45;;;;;;;8.73;7.18;;;22.10;83.20;;;;;;5030602;28;20021;-50
2023/07/08 00:20:36;;;;;;;13.18;8.10;;;22.20;83.00;;;;;;5046422;28;20029;-50
2023/07/08 00:23:02;;;;;;;10.40;7.85;;;22.20;83.00;;;;;;5050331;28;20503;-47
2023/07/08 00:25:29;;;;;;;11.70;6.75;;;22.20;83.00;;;;;;5050975;28;20096;-50
2023/07/08 00:27:56;;;;;;;11.82;8.93;;;22.20;83.20;;;;;;5051217;28;20052;-48
2023/07/08 00:30:28;;;;;;;14.40;8.30;;;22.20;83.10;;;;;;5051388;28;20472;-49
2023/07/08 00:32:55;;;;;;;9.40;7.85;;;22.10;83.20;;;;;;5043202;28;20622;-45
2023/07/08 00:35:34;;;;;;;10.05;7.28;;;22.00;83.40;;;;;;5042628;28;20086;-46
2023/07/08 00:38:12;;;;;;;10.68;7.05;;;22.10;83.70;;;;;;5051320;28;20374;-45
2023/07/08 00:40:48;;;;;;;9.52;7.43;;;22.10;83.60;;;;;;5037719;28;20026;-45
2023/07/08 00:43:14;;;;;;;14.05;7.53;;;22.00;83.60;;;;;;5012126;28;20034;-44
2023/07/08 00:45:53;;;;;;;10.63;7.70;;;22.00;83.60;;;;;;5012053;28;20037;-48
2023/07/08 00:48:31;;;;;;;11.95;7.95;;;21.90;84.10;;;;;;5011877;28;20101;-49
2023/07/08 00:50:57;;;;;;;12.77;7.80;;;21.80;84.70;;;;;;5011906;28;20397;-48
2023/07/08 00:53:23;;;;;;;9.55;7.53;;;21.80;84.50;;;;;;5013873;28;20022;-46
2023/07/08 00:55:48;;;;;;;10.63;7.88;;;21.80;84.10;;;;;;5038964;28;20489;-46
2023/07/08 00:58:18;;;;;;;13.88;7.05;;;21.80;84.40;;;;;;5051461;28;20044;-47
2023/07/08 01:00:44;;;;;;;10.40;7.20;;;21.70;84.80;;;;;;5051321;28;20418;-46
2023/07/08 01:03:10;;;;;;;8.82;7.43;;;21.50;85.10;;;;;;5051151;28;20025;-46
2023/07/08 01:05:38;;;;;;;15.57;7.38;;;21.50;85.40;;;;;;5050774;28;20108;-46
2023/07/08 01:08:06;;;;;;;9.70;7.50;;;21.60;85.40;;;;;;5048024;28;20025;-46
2023/07/08 01:10:45;;;;;;;11.98;6.72;;;21.60;85.10;;;;;;5037165;28;20040;-50
2023/07/08 01:13:15;;;;;;;10.82;8.13;;;21.60;85.30;;;;;;5043983;28;20400;-46
2023/07/08 01:15:43;;;;;;;8.50;7.00;;;21.60;85.20;;;;;;5051738;28;20021;-48
2023/07/08 01:18:11;;;;;;;10.15;7.22;;;21.70;85.20;;;;;;5051163;28;20040;-47
2023/07/08 01:20:37;;;;;;;11.65;7.93;;;21.60;85.40;;;;;;5054849;28;20029;-46
2023/07/08 01:23:04;;;;;;;10.48;7.85;;;21.70;85.50;;;;;;5053446;28;20021;-48
2023/07/08 01:25:31;;;;;;;13.10;8.30;;;21.80;85.40;;;;;;5041887;28;20472;-49
2023/07/08 01:27:57;;;;;;;9.82;7.63;;;21.80;85.00;;;;;;5052217;28;20151;-50
2023/07/08 01:30:25;;;;;;;7.93;7.03;;;21.80;84.80;;;;;;5055893;28;20021;-51
2023/07/08 01:32:57;;;;;;;15.95;7.85;;;21.80;84.90;;;;;;5049239;28;20488;-47
2023/07/08 01:35:23;;;;;;;11.10;7.30;;;21.80;85.10;;;;;;5046945;28;20028;-49
2023/07/08 01:37:53;;;;;;;12.73;7.03;;;21.70;85.10;;;;;;5054417;28;20067;-52
2023/07/08 01:40:29;;;;;;;8.25;6.93;;;21.70;85.30;;;;;;5054668;28;20059;-51
2023/07/08 01:42:55;;;;;;;12.57;7.40;;;21.60;85.30;;;;;;5042354;28;20025;-51
2023/07/08 01:45:22;;;;;;;10.10;7.47;;;21.50;85.60;;;;;;5047170;28;20457;-50
2023/07/08 01:47:56;;;;;;;10.35;7.78;;;21.50;85.70;;;;;;5055427;28;20025;-48
2023/07/08 01:50:23;;;;;;;9.75;6.75;;;21.50;85.70;;;;;;5055666;28;20398;-49
2023/07/08 01:52:50;;;;;;;8.25;6.97;;;21.50;85.70;;;;;;5055138;28;20029;-49
2023/07/08 01:55:21;;;;;;;10.77;7.10;;;21.60;85.50;;;;;;5050867;28;20021;-48
2023/07/08 01:57:47;;;;;;;10.90;7.25;;;21.60;85.40;;;;;;5042261;28;20018;-50
2023/07/08 02:00:13;;;;;;;10.80;6.95;;;21.50;85.30;;;;;;5053691;28;20087;-47
2023/07/08 02:02:38;;;;;;;14.70;7.60;;;21.60;85.40;;;;;;5054056;28;20481;-47
2023/07/08 02:05:04;;;;;;;9.25;7.38;;;21.50;85.50;;;;;;5048400;28;20026;-47
2023/07/08 02:07:29;;;;;;;10.10;6.82;;;21.60;85.40;;;;;;5044891;28;20468;-48
2023/07/08 02:09:55;;;;;;;7.88;6.78;;;21.50;85.60;;;;;;5052659;28;20036;-47
2023/07/08 02:12:20;;;;;;;16.00;7.65;;;21.40;85.80;;;;;;5053756;28;20112;-48
2023/07/08 02:14:46;;;;;;;9.00;7.35;;;21.40;85.60;;;;;;5053826;28;20036;-49
2023/07/08 02:17:16;;;;;;;10.15;7.22;;;21.40;85.80;;;;;;5053560;28;20037;-47
2023/07/08 02:19:42;;;;;;;12.45;7.82;;;21.30;85.80;;;;;;5048202;28;20025;-52
2023/07/08 02:22:08;;;;;;;10.85;7.00;;;21.30;86.00;;;;;;5043978;28;20383;-47
2023/07/08 02:24:33;;;;;;;10.02;7.32;;;21.30;86.10;;;;;;5053698;28;20028;-47
2023/07/08 02:26:59;;;;;;;8.68;7.20;;;21.20;86.40;;;;;;5052777;28;20033;-47
2023/07/08 02:29:25;;;;;;;8.00;6.90;;;21.10;86.60;;;;;;5053593;28;20024;-47
2023/07/08 02:31:51;;;;;;;11.10;7.15;;;21.00;87.10;;;;;;5052815;28;20021;-47
2023/07/08 02:34:17;;;;;;;11.10;7.43;;;21.00;87.10;;;;;;5047418;28;20028;-47
2023/07/08 02:36:43;;;;;;;12.48;7.70;;;20.80;87.60;;;;;;5044439;28;20382;-49
2023/07/08 02:39:09;;;;;;;11.68;7.18;;;20.70;88.00;;;;;;5053424;28;20025;-47
2023/07/08 02:41:35;;;;;;;11.52;8.05;;;20.50;88.70;;;;;;5053217;28;20035;-49
2023/07/08 02:44:00;;;;;;;8.52;6.68;;;20.50;88.90;;;;;;5042739;28;20045;-47
2023/07/08 02:46:26;;;;;;;13.40;7.00;;;20.50;89.00;;;;;;5051345;28;20442;-47
2023/07/08 02:48:51;;;;;;;11.82;7.20;;;20.50;88.90;;;;;;5052265;28;20017;-48
2023/07/08 02:51:17;;;;;;;9.82;7.55;;;20.60;88.90;;;;;;5041371;28;20504;-46
2023/07/08 02:53:43;;;;;;;11.98;6.93;;;20.70;88.90;;;;;;5033237;28;20140;-46
2023/07/08 02:56:08;;;;;;;9.98;7.80;;;20.70;88.50;;;;;;5031116;28;20409;-47
2023/07/08 02:58:35;;;;;;;10.93;7.10;;;20.70;88.50;;;;;;5033212;28;20053;-47
2023/07/08 03:01:00;;;;;;;11.05;7.28;;;20.70;88.40;;;;;;5040129;28;20485;-47
2023/07/08 03:03:29;;;;;;;12.95;8.02;;;20.70;88.50;;;;;;5045426;28;20040;-45
2023/07/08 03:06:02;;;;;;;12.68;7.03;;;20.60;88.60;;;;;;5052095;28;20040;-47
2023/07/08 03:08:28;;;;;;;13.88;7.07;;;20.60;88.90;;;;;;5052870;28;20103;-49
2023/07/08 03:11:03;;;;;;;7.38;6.53;;;20.50;89.10;;;;;;5052791;28;20025;-47
2023/07/08 03:13:30;;;;;;;10.90;7.03;;;20.40;89.50;;;;;;5052621;28;20033;-46
2023/07/08 03:15:56;;;;;;;12.57;7.30;;;20.40;89.80;;;;;;5039477;28;20095;-48
2023/07/08 03:18:26;;;;;;;16.38;6.30;;;20.40;89.80;;;;;;5011670;28;20030;-45
2023/07/08 03:20:53;;;;;;;10.00;6.80;;;20.40;89.60;;;;;;5011676;28;20029;-47
2023/07/08 03:23:18;;;;;;;11.63;6.40;;;20.40;89.60;;;;;;5012768;28;20042;-46
2023/07/08 03:25:44;;;;;;;10.55;6.50;;;20.40;89.50;;;;;;5012233;28;20096;-46
2023/07/08 03:28:14;;;;;;;10.68;7.47;;;20.40;89.60;;;;;;5012790;28;20448;-47
2023/07/08 03:30:41;;;;;;;13.05;7.53;;;20.40;89.50;;;;;;5038116;28;20021;-47
2023/07/08 03:33:07;;;;;;;9.88;7.43;;;20.30;89.80;;;;;;5046371;28;20128;-46
2023/07/08 03:35:32;;;;;;;9.50;7.32;;;20.30;89.80;;;;;;5040084;28;20093;-48
2023/07/08 03:37:58;;;;;;;8.38;6.22;;;20.30;90.00;;;;;;5032048;28;20117;-46
2023/07/08 03:40:23;;;;;;;10.48;7.43;;;20.20;90.00;;;;;;5032449;28;20033;-47
2023/07/08 03:42:49;;;;;;;11.18;6.65;;;20.20;90.20;;;;;;5031542;28;20044;-46
2023/07/08 03:45:14;;;;;;;9.93;7.68;;;20.20;90.20;;;;;;5031939;28;20707;-47
2023/07/08 03:47:40;;;;;;;7.10;5.97;;;20.10;90.30;;;;;;5031022;28;20025;-46
2023/07/08 03:50:11;;;;;;;12.15;7.47;;;20.10;90.40;;;;;;5041381;28;20028;-49
2023/07/08 03:52:36;;;;;;;8.77;7.32;;;20.10;90.50;;;;;;5051947;28;20392;-47
2023/07/08 03:55:03;;;;;;;11.43;7.03;;;20.00;90.80;;;;;;5052194;28;20027;-48
2023/07/08 03:57:28;;;;;;;11.60;6.80;;;20.00;90.60;;;;;;5041813;28;20086;-45
2023/07/08 03:59:54;;;;;;;10.35;6.82;;;20.00;90.70;;;;;;5035851;28;20041;-47
2023/07/08 04:02:19;;;;;;;10.57;6.78;;;20.00;90.60;;;;;;5031915;28;20030;-46
2023/07/08 04:04:46;;;;;;;11.82;7.03;;;20.00;90.70;;;;;;5036454;28;20082;-48
2023/07/08 04:07:12;;;;;;;9.65;7.10;;;20.00;90.70;;;;;;5042678;28;20029;-48
2023/07/08 04:09:37;;;;;;;9.27;7.00;;;20.10;90.70;;;;;;5051764;28;20032;-46
2023/07/08 04:12:04;;;;;;;11.05;7.10;;;20.10;90.70;;;;;;5051565;28;20124;-47
2023/07/08 04:14:30;;;;;;;9.18;7.78;;;20.10;90.70;;;;;;5051633;28;20396;-47
2023/07/08 04:16:58;;;;;;;13.52;7.28;;;20.20;90.60;;;;;;5050414;28;20043;-49
2023/07/08 04:19:24;;;;;;;9.45;7.15;;;20.30;90.50;;;;;;5038482;28;20386;-48
2023/07/08 04:21:50;;;;;;;8.80;6.97;;;20.40;90.20;;;;;;5039024;28;20041;-47
2023/07/08 04:24:17;;;;;;;9.43;7.18;;;20.40;90.20;;;;;;5041770;28;20017;-47
2023/07/08 04:26:46;;;;;;;13.00;7.63;;;20.50;90.10;;;;;;5050892;28;20021;-48
2023/07/08 04:29:17;;;;;;;12.63;7.25;;;20.60;90.10;;;;;;5051549;28;20021;-49
2023/07/08 04:31:42;;;;;;;8.27;6.32;;;20.50;90.10;;;;;;5051594;28;20032;-52
2023/07/08 04:34:09;;;;;;;11.32;6.95;;;20.60;90.00;;;;;;5039022;28;20092;-50
2023/07/08 04:36:35;;;;;;;15.77;8.27;;;20.60;90.00;;;;;;5040133;28;20370;-47
2023/07/08 04:39:01;;;;;;;11.25;7.35;;;20.50;90.00;;;;;;5048061;28;20036;-51
2023/07/08 04:41:27;;;;;;;9.65;7.05;;;20.60;90.00;;;;;;5041668;28;20040;-46
2023/07/08 04:43:53;;;;;;;11.85;7.43;;;20.70;90.00;;;;;;5042646;28;20456;-47
2023/07/08 04:46:37;;;;;;;9.02;6.90;;;20.70;90.10;;;;;;5050407;28;20405;-49
2023/07/08 04:49:03;;;;;;;11.82;7.05;;;20.70;90.00;;;;;;5049978;28;20049;-46
2023/07/08 04:51:29;;;;;;;10.10;7.28;;;20.80;90.00;;;;;;5051290;28;20021;-47
2023/07/08 04:53:55;;;;;;;11.95;6.43;;;20.80;89.90;;;;;;5052347;28;20128;-47
2023/07/08 04:56:21;;;;;;;8.98;6.15;;;20.90;89.40;;;;;;5048541;28;20033;-46
2023/07/08 04:58:47;;;;;;;10.25;6.88;;;21.00;89.40;;;;;;5051054;28;20496;-50
2023/07/08 05:01:12;;;;;;;8.75;6.50;;;21.10;88.80;;;;;;5060158;28;20040;-51
2023/07/08 05:03:38;;;;;;;8.05;6.47;;;21.10;88.50;;;;;;5059396;28;20037;-51
2023/07/08 05:06:03;;;;;;;10.07;7.25;;;21.10;88.70;;;;;;5052105;28;20029;-48
2023/07/08 05:08:29;;;;;;;10.95;6.60;;;21.10;88.70;;;;;;5063107;28;20424;-49
2023/07/08 05:10:55;;;;;;;13.32;7.05;;;21.10;88.60;;;;;;5047289;28;20027;-47
2023/07/08 05:13:22;;;;;;;10.50;6.18;;;21.10;88.90;;;;;;5046034;28;20060;-48
2023/07/08 05:15:48;;;;;;;9.88;6.57;;;21.10;89.20;;;;;;5054315;28;20029;-47
2023/07/08 05:18:14;;;;;;;9.38;6.68;;;21.10;89.20;;;;;;5055140;28;20479;-45
2023/07/08 05:20:39;;;;;;;11.43;6.93;;;21.10;89.50;;;;;;5055000;28;20056;-47
2023/07/08 05:23:05;;;;;;;6.18;5.35;;;21.10;89.60;;;;;;5054842;28;20377;-47
2023/07/08 05:25:32;;;;;;;7.70;6.05;;;21.10;89.70;;;;;;5051595;28;20515;-47
2023/07/08 05:27:58;;;;;;;6.53;5.80;;;21.30;89.60;;;;;;5046190;28;20021;-46
2023/07/08 05:30:24;;;;;;;7.97;6.32;;;21.50;89.40;;;;;;5054785;28;20499;-50
2023/07/08 05:32:49;;;;;;;8.65;6.57;;;21.70;88.80;;;;;;5052945;28;20028;-48
2023/07/08 05:35:15;;;;;;;11.82;5.75;;;22.10;88.30;;;;;;5040813;28;20017;-48
2023/07/08 05:37:44;;;;;;;9.52;6.93;;;22.80;87.10;;;;;;5047732;28;20025;-47
2023/07/08 05:40:10;;;;;;;7.72;6.28;;;23.40;84.70;;;;;;5044220;28;20048;-47
2023/07/08 05:42:36;;;;;;;9.38;5.68;;;24.00;82.10;;;;;;5047116;28;20205;-47
2023/07/08 05:45:02;;;;;;;6.05;5.45;;;24.40;81.00;;;;;;5054483;28;20031;-47
2023/07/08 05:47:27;;;;;;;10.23;5.75;;;24.50;80.40;;;;;;5048587;28;20032;-47
2023/07/08 05:49:53;;;;;;;7.00;5.75;;;24.40;80.00;;;;;;5042610;28;20505;-46
2023/07/08 05:52:18;;;;;;;7.82;7.03;;;24.30;79.40;;;;;;5052819;28;20029;-47
2023/07/08 05:54:44;;;;;;;10.25;5.90;;;24.70;79.20;;;;;;5054252;28;20029;-50
2023/07/08 05:57:11;;;;;;;7.32;6.55;;;25.40;78.50;;;;;;5053521;28;20396;-48
2023/07/08 05:59:38;;;;;;;10.65;5.63;;;26.30;76.30;;;;;;5054186;28;20426;-49
2023/07/08 06:02:05;;;;;;;11.85;6.18;;;27.10;73.60;;;;;;5051391;28;20032;-47
2023/07/08 06:04:31;;;;;;;9.13;6.00;;;27.30;72.40;;;;;;5040195;28;20534;-50
2023/07/08 06:06:57;;;;;;;7.22;6.15;;;27.00;73.00;;;;;;5046246;28;20037;-47
2023/07/08 06:09:22;;;;;;;8.10;6.15;;;26.20;74.20;;;;;;5053939;28;20512;-47
2023/07/08 06:11:48;;;;;;;10.38;6.15;;;25.50;76.20;;;;;;5045062;28;20025;-46
2023/07/08 06:14:13;;;;;;;8.35;6.20;;;24.70;77.10;;;;;;5042746;28;20029;-48
2023/07/08 06:16:39;;;;;;;9.10;6.60;;;24.20;78.70;;;;;;5053210;28;20055;-47
2023/07/08 06:19:05;;;;;;;8.90;6.45;;;23.70;79.30;;;;;;5053945;28;20025;-46
2023/07/08 06:21:31;;;;;;;10.38;7.18;;;23.60;80.40;;;;;;5053965;28;20497;-48
2023/07/08 06:23:56;;;;;;;11.23;7.22;;;23.60;80.60;;;;;;5054072;28;20040;-51
2023/07/08 06:26:23;;;;;;;8.05;6.15;;;23.50;81.00;;;;;;5047137;28;20056;-48
2023/07/08 06:28:49;;;;;;;9.98;6.25;;;23.30;80.70;;;;;;5045274;28;20396;-52
2023/07/08 06:31:14;;;;;;;14.05;6.82;;;23.30;81.90;;;;;;5053512;28;20031;-49
2023/07/08 06:33:40;;;;;;;12.27;6.95;;;23.20;82.70;;;;;;5053486;28;20025;-51
2023/07/08 06:36:07;;;;;;;7.32;6.20;;;23.10;84.40;;;;;;5052719;28;20040;-48
2023/07/08 06:38:33;;;;;;;7.93;5.78;;;23.00;85.20;;;;;;5053375;28;20020;-48
2023/07/08 06:40:58;;;;;;;8.90;6.80;;;22.90;85.50;;;;;;5046450;28;20092;-49
2023/07/08 06:43:24;;;;;;;12.32;6.25;;;22.80;86.20;;;;;;5043652;28;20041;-47
2023/07/08 06:45:49;;;;;;;9.98;6.45;;;22.80;86.10;;;;;;5039587;28;20061;-47
2023/07/08 06:48:15;;;;;;;9.85;6.88;;;22.70;86.30;;;;;;5044907;28;20556;-50
2023/07/08 06:50:45;;;;;;;12.30;6.68;;;22.80;86.70;;;;;;5053799;28;20108;-46
2023/07/08 06:53:10;;;;;;;13.20;7.03;;;22.80;86.40;;;;;;5053019;28;20048;-50
2023/07/08 06:55:36;;;;;;;14.60;5.80;;;22.90;86.90;;;;;;5052736;28;20104;-46
2023/07/08 06:58:02;;;;;;;7.97;6.28;;;22.90;86.90;;;;;;5052916;28;20025;-46
2023/07/08 07:00:27;;;;;;;7.47;5.95;;;23.00;89.10;;;;;;5038894;28;20020;-47
2023/07/08 07:02:53;;;;;;;8.63;6.40;;;23.00;89.20;;;;;;5044666;28;20039;-47
2023/07/08 07:05:18;;;;;;;13.98;6.18;;;23.10;88.00;;;;;;5052655;28;20651;-46
2023/07/08 07:07:44;;;;;;;8.48;6.10;;;23.30;89.50;;;;;;5052436;28;20033;-46
2023/07/08 07:10:09;;;;;;;6.75;5.45;;;23.80;89.20;;;;;;5043116;28;20018;-46
2023/07/08 07:12:35;;;;;;;8.57;6.28;;;25.20;84.70;;;;;;5044303;28;20103;-45
2023/07/08 07:15:01;;;;;;;11.40;6.28;;;26.80;80.00;;;;;;5052723;28;20064;-46
2023/07/08 07:17:27;;;;;;;10.52;5.85;;;28.40;75.20;;;;;;5051878;28;20409;-44
2023/07/08 07:19:53;;;;;;;7.10;6.38;;;29.80;71.30;;;;;;5040155;28;20026;-45
2023/07/08 07:22:19;;;;;;;9.43;5.45;;;31.00;69.80;;;;;;5050403;28;20032;-46
2023/07/08 07:24:44;;;;;;;7.45;6.00;;;31.80;67.40;;;;;;5052751;28;20052;-47
2023/07/08 07:27:11;;;;;;;5.50;5.00;;;32.00;66.30;;;;;;5051909;28;20478;-48
2023/07/08 07:30:02;;;;;;;6.47;5.18;;;32.30;66.70;;;;;;5052659;28;20400;-48
2023/07/08 07:32:29;;;;;;;9.43;5.38;;;32.90;63.00;;;;;;5049348;28;20420;-48
2023/07/08 07:34:57;;;;;;;7.22;5.72;;;33.50;61.90;;;;;;5040603;28;20023;-49
2023/07/08 07:37:22;;;;;;;10.90;5.80;;;34.10;60.30;;;;;;5049939;28;20570;-51
2023/07/08 07:39:48;;;;;;;6.22;5.47;;;34.20;60.40;;;;;;5052278;28;20033;-44
2023/07/08 07:42:15;;;;;;;5.97;5.15;;;34.60;60.80;;;;;;5052182;28;20025;-46
2023/07/08 07:44:41;;;;;;;7.00;5.35;;;35.30;60.30;;;;;;5052054;28;20112;-50
2023/07/08 07:47:09;;;;;;;6.18;5.57;;;35.80;58.70;;;;;;5050865;28;20538;-50
2023/07/08 07:49:34;;;;;;;7.63;5.38;;;36.10;59.40;;;;;;5043273;28;20727;-45
2023/07/08 07:52:00;;;;;;;7.75;5.40;;;35.60;56.80;;;;;;5052044;28;20427;-45
2023/07/08 07:54:25;;;;;;;7.97;5.85;;;34.30;58.40;;;;;;5052030;28;20025;-45
2023/07/08 07:56:51;;;;;;;6.30;5.53;;;32.50;59.50;;;;;;5044375;28;20033;-48
2023/07/08 07:59:17;;;;;;;11.88;5.60;;;31.70;61.40;;;;;;5043965;28;20052;-46
2023/07/08 08:01:43;;;;;;;6.90;5.35;;;30.90;62.40;;;;;;5043232;28;20058;-49
2023/07/08 08:04:10;;;;;;;7.57;5.55;;;30.50;62.80;;;;;;5037657;28;20037;-49
2023/07/08 08:06:35;;;;;;;8.15;6.03;;;30.20;63.70;;;;;;5043027;28;20139;-50
2023/07/08 08:09:02;;;;;;;9.88;5.78;;;30.00;65.20;;;;;;5052396;28;20025;-47
2023/07/08 08:11:27;;;;;;;6.68;5.60;;;29.50;65.30;;;;;;5052552;28;20017;-49
2023/07/08 08:13:53;;;;;;;8.85;6.13;;;29.30;65.40;;;;;;5048245;28;20048;-52
2023/07/08 08:16:20;;;;;;;8.48;6.50;;;28.90;66.00;;;;;;5044576;28;20076;-50
2023/07/08 08:18:46;;;;;;;11.07;5.85;;;28.70;66.60;;;;;;5052097;28;20112;-48
2023/07/08 08:21:11;;;;;;;10.18;6.47;;;29.00;66.80;;;;;;5051896;28;20067;-45
2023/07/08 08:23:37;;;;;;;10.48;6.70;;;28.80;66.10;;;;;;5043086;28;20584;-49
2023/07/08 08:26:02;;;;;;;10.10;6.25;;;28.40;66.70;;;;;;5045950;28;20078;-47
2023/07/08 08:28:28;;;;;;;8.18;6.30;;;28.00;67.20;;;;;;5050944;28;20092;-48
2023/07/08 08:30:53;;;;;;;7.57;6.28;;;27.90;68.60;;;;;;5042725;28;20033;-43
2023/07/08 08:33:20;;;;;;;9.13;6.30;;;27.70;68.60;;;;;;5048606;28;20031;-45
2023/07/08 08:35:46;;;;;;;11.43;6.88;;;27.60;68.60;;;;;;5050699;28;20036;-47
2023/07/08 08:38:11;;;;;;;6.85;6.00;;;27.90;68.00;;;;;;5051388;28;20021;-49
2023/07/08 08:40:39;;;;;;;7.63;6.13;;;28.40;67.20;;;;;;5051291;28;20493;-52
2023/07/08 08:43:22;;;;;;;12.82;6.20;;;28.70;67.20;;;;;;5051342;28;20056;-45
2023/07/08 08:46:04;;;;;;;13.15;6.10;;;28.90;66.50;;;;;;5040523;28;20034;-49
2023/07/08 08:48:35;;;;;;;8.40;5.97;;;29.50;66.00;;;;;;5048605;28;20401;-46
2023/07/08 08:51:11;;;;;;;8.45;6.22;;;30.10;63.50;;;;;;5050047;28;20021;-51
2023/07/08 08:53:36;;;;;;;10.13;6.32;;;30.50;63.10;;;;;;5051329;28;20415;-47
2023/07/08 08:56:20;;;;;;;9.75;5.90;;;30.20;62.80;;;;;;5050468;28;20033;-50
2023/07/08 08:59:03;;;;;;;5.88;5.28;;;30.20;62.50;;;;;;5046264;28;20025;-48
2023/07/08 09:01:29;;;;;;;7.35;5.80;;;30.40;62.90;;;;;;5039973;28;20111;-46
2023/07/08 09:04:03;;;;;;;7.22;5.95;;;30.60;62.10;;;;;;5049938;28;20057;-49
2023/07/08 09:06:32;;;;;;;6.10;5.47;;;31.10;62.40;;;;;;5042757;28;20463;-48
2023/07/08 09:09:16;;;;;;;8.52;6.50;;;31.40;61.90;;;;;;5039365;28;20021;-49
2023/07/08 09:11:57;;;;;;;7.28;6.28;;;31.30;61.50;;;;;;5011228;28;20028;-49
2023/07/08 09:14:32;;;;;;;7.15;6.03;;;31.30;61.90;;;;;;5026382;28;20026;-49
2023/07/08 09:17:21;;;;;;;11.10;6.90;;;31.60;62.30;;;;;;5010904;28;20037;-49
2023/07/08 09:20:16;;;;;;;8.25;5.60;;;31.40;63.00;;;;;;5011394;28;20101;-50
2023/07/08 09:22:44;;;;;;;;;;;31.00;62.40;;;;;;5031843;28;20025;-49
2023/07/08 09:25:31;;;;;;;9.68;6.43;;;30.60;63.80;;;;;;5046339;28;20410;-50
2023/07/08 09:27:57;;;;;;;8.35;6.28;;;30.60;64.40;;;;;;5050617;28;20036;-51
2023/07/08 09:30:24;;;;;;;6.78;6.07;;;30.80;64.70;;;;;;5043148;28;20405;-52
2023/07/08 09:32:50;;;;;;;8.48;6.47;;;30.90;64.60;;;;;;5042406;28;20025;-51
2023/07/08 09:35:23;;;;;;;10.93;6.22;;;31.10;64.50;;;;;;5050318;28;20033;-50
2023/07/08 09:37:49;;;;;;;11.18;6.85;;;31.10;64.40;;;;;;5050535;28;20021;-49
2023/07/08 09:40:19;;;;;;;10.50;6.90;;;31.00;64.60;;;;;;5042966;28;20044;-50
2023/07/08 09:42:51;;;;;;;9.35;6.50;;;31.00;65.20;;;;;;5038467;28;20480;-46
2023/07/08 09:45:20;;;;;;;9.23;6.47;;;31.00;65.10;;;;;;5053828;28;20021;-47
2023/07/08 09:47:47;;;;;;;10.10;6.15;;;30.80;64.90;;;;;;5054013;28;20109;-51
2023/07/08 09:50:23;;;;;;;8.15;6.20;;;30.60;64.50;;;;;;5053092;28;20063;-46
2023/07/08 09:52:51;;;;;;;9.93;6.28;;;30.40;64.90;;;;;;5044408;28;20079;-47
2023/07/08 09:55:18;;;;;;;10.77;6.53;;;30.40;64.90;;;;;;5045422;28;20023;-46
2023/07/08 09:57:46;;;;;;;8.85;5.88;;;30.50;65.60;;;;;;5053759;28;20040;-48
2023/07/08 10:00:18;;;;;;;9.88;6.13;;;30.50;65.50;;;;;;5049241;28;20017;-49
2023/07/08 10:02:56;;;;;;;10.48;6.78;;;30.70;65.40;;;;;;5045469;28;20056;-48
2023/07/08 10:05:37;;;;;;;7.50;5.63;;;30.70;65.40;;;;;;5053673;28;20037;-48
2023/07/08 10:08:16;;;;;;;12.73;6.18;;;31.00;66.40;;;;;;5047480;28;20548;-46
2023/07/08 10:10:43;;;;;;;12.85;6.95;;;31.10;65.80;;;;;;5045633;28;20044;-47
2023/07/08 10:13:17;;;;;;;14.57;6.32;;;31.30;65.80;;;;;;5053489;28;20052;-50
2023/07/08 10:15:49;;;;;;;14.95;6.25;;;31.30;64.60;;;;;;5053024;28;20040;-51
2023/07/08 10:18:17;;;;;;;9.48;5.88;;;31.20;64.70;;;;;;5053904;28;20021;-52
2023/07/08 10:21:02;;;;;;;6.28;5.68;;;31.00;64.20;;;;;;5053871;28;20025;-49
2023/07/08 10:24:07;;;;;;;9.05;6.05;;;30.80;64.80;;;;;;5044899;28;20090;-48
2023/07/08 10:26:34;;;;;;;9.98;6.65;;;30.80;64.60;;;;;;5050997;28;20054;-49
2023/07/08 10:29:18;;;;;;;10.48;5.35;;;30.60;64.40;;;;;;5053587;28;20043;-49
2023/07/08 10:32:18;;;;;;;7.75;5.43;;;30.50;65.90;;;;;;5045636;28;20017;-50
2023/07/08 10:34:45;;;;;;;8.55;5.22;;;30.50;66.70;;;;;;5051104;28;20055;-47
2023/07/08 10:37:28;;;;;;;9.48;6.22;;;30.70;66.00;;;;;;5048953;28;20025;-45
2023/07/08 10:40:13;;;;;;;12.70;5.78;;;30.80;64.90;;;;;;5033422;28;20033;-50
2023/07/08 10:42:41;;;;;;;;;;;30.70;64.70;;;;;;5033776;28;20026;-46
2023/07/08 10:45:16;;;;;;;7.13;5.15;;;30.60;64.50;;;;;;5033631;28;19940;-45
2023/07/08 10:47:50;;;;;;;7.97;5.70;;;30.50;65.70;;;;;;5033296;28;20033;-44
2023/07/08 10:50:49;;;;;;;7.93;5.43;;;30.50;66.90;;;;;;5033524;28;20033;-46
2023/07/08 10:53:48;;;;;;;5.20;4.70;;;30.40;67.10;;;;;;5038775;28;20112;-46
2023/07/08 10:56:38;;;;;;;8.73;4.97;;;30.50;67.30;;;;;;5040192;28;20041;-50
2023/07/08 10:59:26;;;;;;;8.25;5.03;;;30.40;67.00;;;;;;5051786;28;20373;-46
2023/07/08 11:02:20;;;;;;;7.55;5.63;;;30.40;68.00;;;;;;5052920;28;20060;-44
2023/07/08 11:04:50;;;;;;;9.25;4.47;;;30.40;67.40;;;;;;5052707;28;20021;-47
2023/07/08 11:07:37;;;;;;;6.00;5.18;;;30.30;66.90;;;;;;5042127;28;20071;-45
2023/07/08 11:10:20;;;;;;;9.30;5.60;;;30.20;66.90;;;;;;5034674;28;20025;-48
2023/07/08 11:12:50;;;;;;;9.52;5.72;;;30.10;67.90;;;;;;5032554;28;20552;-47
2023/07/08 11:15:32;;;;;;;9.05;4.95;;;30.10;68.40;;;;;;5032411;28;20036;-47
2023/07/08 11:18:18;;;;;;;7.35;5.18;;;30.10;69.90;;;;;;5032588;28;20032;-47
2023/07/08 11:20:57;;;;;;;7.20;5.55;;;30.20;69.70;;;;;;5032713;28;20024;-49
2023/07/08 11:23:52;;;;;;;8.23;5.00;;;30.10;67.80;;;;;;5038680;28;20037;-51
2023/07/08 11:26:52;;;;;;;10.90;4.67;;;30.10;68.70;;;;;;5010100;28;20045;-46
2023/07/08 11:29:31;;;;;;;7.90;4.93;;;30.10;68.30;;;;;;5013158;28;20059;-49
2023/07/08 11:31:58;;;;;;;9.43;5.28;;;30.20;68.70;;;;;;5030734;28;20029;-47
2023/07/08 11:34:25;;;;;;;7.93;4.93;;;30.10;69.60;;;;;;5043858;28;20384;-52
2023/07/08 11:36:52;;;;;;;7.43;4.90;;;30.10;69.80;;;;;;5050449;28;20048;-46
2023/07/08 11:39:53;;;;;;;7.07;4.50;;;30.10;69.60;;;;;;5052324;28;20025;-46
2023/07/08 11:42:42;;;;;;;9.02;5.20;;;30.10;70.10;;;;;;5048364;28;20036;-49
2023/07/08 11:45:32;;;;;;;8.68;4.82;;;30.10;70.30;;;;;;5048370;28;20029;-48
2023/07/08 11:48:15;;;;;;;9.25;4.60;;;30.10;69.70;;;;;;5037760;28;20421;-46
2023/07/08 11:50:43;;;;;;;7.72;4.88;;;30.20;69.20;;;;;;5041822;28;20040;-49
2023/07/08 11:53:11;;;;;;;7.85;4.80;;;30.20;69.10;;;;;;5052137;28;20051;-48
2023/07/08 11:55:56;;;;;;;8.20;4.70;;;30.30;68.80;;;;;;5051652;28;20025;-48
2023/07/08 11:58:24;;;;;;;8.75;4.93;;;30.30;70.30;;;;;;5052167;28;20086;-47
2023/07/08 12:01:25;;;;;;;5.53;4.68;;;30.30;68.30;;;;;;5050724;28;20024;-48
2023/07/08 12:04:09;;;;;;;6.75;4.88;;;30.40;69.00;;;;;;5044653;28;20017;-48
2023/07/08 12:06:34;;;;;;;13.00;4.53;;;30.40;69.00;;;;;;5034073;28;20040;-48
2023/07/08 12:09:15;;;;;;;11.82;4.68;;;30.40;68.10;;;;;;5043472;28;20016;-47
2023/07/08 12:14:09;;;;;;;12.27;4.00;;;30.50;67.70;;;;;;5032360;22;20058;-54
2023/07/08 12:16:34;;;;;;;8.75;3.85;;;30.50;65.80;;;;;;5011305;28;20041;-52
2023/07/08 12:19:01;;;;;;;6.18;4.03;;;30.50;65.30;;;;;;5010801;28;20121;-53
2023/07/08 12:21:27;;;;;;;5.05;3.80;;;30.50;66.50;;;;;;5011246;28;20030;-50
2023/07/08 12:23:53;;;;;;;6.05;4.10;;;30.50;65.90;;;;;;5010497;28;20029;-52
2023/07/08 12:26:19;;;;;;;8.30;4.57;;;30.50;65.70;;;;;;5011164;28;20030;-54
2023/07/08 12:28:45;;;;;;;7.70;4.13;;;30.60;66.40;;;;;;5011865;28;20117;-53
2023/07/08 12:31:17;;;;;;;8.77;4.43;;;30.70;65.30;;;;;;5010253;28;20547;-54
2023/07/08 12:33:44;;;;;;;8.23;4.18;;;30.80;65.70;;;;;;5020500;28;20548;-55
2023/07/08 12:36:14;;;;;;;7.75;4.05;;;30.80;64.80;;;;;;5030837;28;20029;-51
2023/07/08 12:38:44;;;;;;;6.72;4.05;;;30.80;63.80;;;;;;5031483;28;20112;-55
2023/07/08 12:41:14;;;;;;;7.63;4.07;;;30.70;63.80;;;;;;5021443;28;20034;-58
2023/07/08 12:43:39;;;;;;;6.28;4.35;;;30.80;66.10;;;;;;5029458;28;20030;-55
2023/07/08 12:46:08;;;;;;;12.98;4.15;;;30.90;65.10;;;;;;5029479;28;20059;-54
2023/07/08 12:48:34;;;;;;;5.43;3.78;;;31.00;65.70;;;;;;5019269;28;20018;-54
2023/07/08 12:51:00;;;;;;;11.57;4.25;;;31.00;65.70;;;;;;5031852;28;20104;-55
2023/07/08 12:53:25;;;;;;;6.68;4.05;;;31.00;66.10;;;;;;5030474;28;20032;-52
2023/07/08 12:55:54;;;;;;;7.47;3.92;;;31.00;64.70;;;;;;5029465;28;20018;-53
2023/07/08 12:58:28;;;;;;;5.57;4.18;;;31.00;64.50;;;;;;5031568;28;20522;-50